createdAt,value
2023-05-14T00:09:32.326Z,19.33
2023-05-14T00:11:58.773Z,31.23
2023-05-14T00:14:25.228Z,15.15
2023-05-14T00:16:51.685Z,21.63
2023-05-14T00:19:18.240Z,19.95
2023-05-14T00:21:44.794Z,18.35
2023-05-14T00:24:11.280Z,12.32
2023-05-14T00:26:37.809Z,13.57
2023-05-14T00:29:04.399Z,12.35
2023-05-14T00:31:30.923Z,11.23
2023-05-14T00:33:57.462Z,13.77
2023-05-14T00:36:24.025Z,12.60
2023-05-14T00:38:50.489Z,12.50
2023-05-14T00:41:16.941Z,14.18
2023-05-14T00:43:43.350Z,18.27
2023-05-14T00:46:09.989Z,18.30
2023-05-14T00:48:36.634Z,14.57
2023-05-14T00:51:03.439Z,17.98
2023-05-14T00:53:29.989Z,15.20
2023-05-14T00:55:56.821Z,14.63
2023-05-14T00:58:24.134Z,17.40
2023-05-14T01:00:50.782Z,13.52
2023-05-14T01:03:17.339Z,17.58
2023-05-14T01:06:07.095Z,19.67
2023-05-14T01:08:50.522Z,17.63
2023-05-14T01:11:24.652Z,16.00
2023-05-14T01:14:45.266Z,14.50
2023-05-14T01:17:15.232Z,12.82
2023-05-14T01:19:44.074Z,12.23
2023-05-14T01:22:11.660Z,13.07
2023-05-14T01:24:38.454Z,13.50
2023-05-14T01:27:26.521Z,13.32
2023-05-14T01:30:09.965Z,12.23
2023-05-14T01:32:38.074Z,12.70
2023-05-14T01:35:07.172Z,13.45
2023-05-14T01:37:34.732Z,12.20
2023-05-14T01:40:02.007Z,12.68
2023-05-14T01:42:29.055Z,12.90
2023-05-14T01:44:56.162Z,12.38
2023-05-14T01:47:22.580Z,13.15
2023-05-14T01:49:49.150Z,13.27
2023-05-14T01:52:15.622Z,14.07
2023-05-14T01:54:42.115Z,12.65
2023-05-14T01:57:08.568Z,13.07
2023-05-14T01:59:35.002Z,13.27
2023-05-14T02:02:01.494Z,13.70
2023-05-14T02:04:28.124Z,13.52
2023-05-14T02:06:54.601Z,13.73
2023-05-14T02:09:21.173Z,15.50
2023-05-14T02:11:47.674Z,13.68
2023-05-14T02:14:15.213Z,13.73
2023-05-14T02:16:41.984Z,14.32
2023-05-14T02:19:08.580Z,12.80
2023-05-14T02:21:35.388Z,14.23
2023-05-14T02:24:01.884Z,14.48
2023-05-14T02:26:28.329Z,14.32
2023-05-14T02:28:55.212Z,14.85
2023-05-14T02:31:21.769Z,13.65
2023-05-14T02:33:48.224Z,13.82
2023-05-14T02:36:14.681Z,13.50
2023-05-14T02:38:41.126Z,14.15
2023-05-14T02:41:07.581Z,14.02
2023-05-14T02:43:34.067Z,13.40
2023-05-14T02:46:00.565Z,14.80
2023-05-14T02:48:27.001Z,13.52
2023-05-14T02:50:53.401Z,13.95
2023-05-14T02:53:19.814Z,13.93
2023-05-14T02:55:46.285Z,14.00
2023-05-14T02:58:12.701Z,14.25
2023-05-14T03:00:39.190Z,13.57
2023-05-14T03:03:06.166Z,13.43
2023-05-14T03:05:33.146Z,14.25
2023-05-14T03:08:00.012Z,13.43
2023-05-14T03:10:26.683Z,13.68
2023-05-14T03:12:53.213Z,14.80
2023-05-14T03:15:19.763Z,14.80
2023-05-14T03:17:46.218Z,13.82
2023-05-14T03:20:13.110Z,13.57
2023-05-14T03:22:39.547Z,14.57
2023-05-14T03:25:06.318Z,12.95
2023-05-14T03:27:33.563Z,13.02
2023-05-14T03:30:00.727Z,13.65
2023-05-14T03:32:27.350Z,14.00
2023-05-14T03:34:53.842Z,13.85
2023-05-14T03:37:20.381Z,13.40
2023-05-14T03:39:46.806Z,14.35
2023-05-14T03:42:13.319Z,13.80
2023-05-14T03:44:39.928Z,13.30
2023-05-14T03:47:06.484Z,13.38
2023-05-14T03:49:33.192Z,13.43
2023-05-14T03:51:59.645Z,12.93
2023-05-14T03:54:26.599Z,12.77
2023-05-14T03:56:53.069Z,13.02
2023-05-14T03:59:19.479Z,12.98
2023-05-14T04:01:45.932Z,13.70
2023-05-14T04:04:12.547Z,14.05
2023-05-14T04:06:39.066Z,12.93
2023-05-14T04:09:05.500Z,14.35
2023-05-14T04:11:31.957Z,13.73
2023-05-14T04:13:58.434Z,12.45
2023-05-14T04:16:24.981Z,12.43
2023-05-14T04:18:51.505Z,13.32
2023-05-14T04:21:18.077Z,12.27
2023-05-14T04:23:44.570Z,12.13
2023-05-14T04:26:11.227Z,12.63
2023-05-14T04:28:37.729Z,12.15
2023-05-14T04:31:04.377Z,11.90
2023-05-14T04:33:31.005Z,13.32
2023-05-14T04:35:57.483Z,12.65
2023-05-14T04:38:24.041Z,13.25
2023-05-14T04:40:50.680Z,13.18
2023-05-14T04:43:17.503Z,12.27
2023-05-14T04:45:44.169Z,12.32
2023-05-14T04:48:10.738Z,11.98
2023-05-14T04:50:37.258Z,12.82
2023-05-14T04:53:03.820Z,13.00
2023-05-14T04:55:30.327Z,12.38
2023-05-14T04:57:56.852Z,13.05
2023-05-14T05:00:23.588Z,12.98
2023-05-14T05:02:50.653Z,11.55
2023-05-14T05:05:17.157Z,11.15
2023-05-14T05:07:43.607Z,12.73
2023-05-14T05:10:10.193Z,11.80
2023-05-14T05:12:36.700Z,10.90
2023-05-14T05:15:03.412Z,10.13
2023-05-14T05:17:30.258Z,12.38
2023-05-14T05:19:57.074Z,9.20
2023-05-14T05:22:23.827Z,9.32
2023-05-14T05:24:50.332Z,9.57
2023-05-14T05:27:16.962Z,9.90
2023-05-14T05:29:44.676Z,8.95
2023-05-14T05:32:11.205Z,8.75
2023-05-14T05:34:37.832Z,8.70
2023-05-14T05:37:05.927Z,8.93
2023-05-14T05:39:34.792Z,8.52
2023-05-14T05:42:05.039Z,7.60
2023-05-14T05:44:31.518Z,8.30
2023-05-14T05:46:58.129Z,7.93
2023-05-14T05:49:24.611Z,7.13
2023-05-14T05:51:51.026Z,7.43
2023-05-14T05:54:17.602Z,7.70
2023-05-14T05:56:44.082Z,7.35
2023-05-14T05:59:10.516Z,6.53
2023-05-14T06:01:37.308Z,6.78
2023-05-14T06:04:06.156Z,7.00
2023-05-14T06:06:33.019Z,6.50
2023-05-14T06:08:59.564Z,7.45
2023-05-14T06:11:26.517Z,7.45
2023-05-14T06:13:53.338Z,8.10
2023-05-14T06:16:19.891Z,7.18
2023-05-14T06:18:47.039Z,6.85
2023-05-14T06:21:13.489Z,6.07
2023-05-14T06:23:39.990Z,6.65
2023-05-14T06:26:06.439Z,7.22
2023-05-14T06:28:32.875Z,6.30
2023-05-14T06:30:59.291Z,6.20
2023-05-14T06:33:30.698Z,6.28
2023-05-14T06:35:59.530Z,6.85
2023-05-14T06:38:25.999Z,5.60
2023-05-14T06:40:55.567Z,6.00
2023-05-14T06:43:22.509Z,6.10
2023-05-14T06:45:52.344Z,5.68
2023-05-14T06:48:19.923Z,6.35
2023-05-14T06:50:47.602Z,6.63
2023-05-14T06:53:14.708Z,6.97
2023-05-14T06:55:41.513Z,5.85
2023-05-14T06:58:08.614Z,5.68
2023-05-14T07:00:35.079Z,6.13
2023-05-14T07:03:01.594Z,6.22
2023-05-14T07:05:28.102Z,6.45
2023-05-14T07:07:54.688Z,6.10
2023-05-14T07:10:21.342Z,7.32
2023-05-14T07:12:47.898Z,5.85
2023-05-14T07:15:14.391Z,5.78
2023-05-14T07:17:41.272Z,6.03
2023-05-14T07:20:08.311Z,5.78
2023-05-14T07:22:34.766Z,6.22
2023-05-14T07:25:01.301Z,6.30
2023-05-14T07:27:27.790Z,5.88
2023-05-14T07:29:54.259Z,5.32
2023-05-14T07:32:20.824Z,5.72
2023-05-14T07:34:47.357Z,6.55
2023-05-14T07:37:13.866Z,4.70
2023-05-14T07:39:41.640Z,5.93
2023-05-14T07:42:08.163Z,5.72
2023-05-14T07:44:34.613Z,6.25
2023-05-14T07:47:01.152Z,5.32
2023-05-14T07:49:27.748Z,5.88
2023-05-14T07:51:54.199Z,6.20
2023-05-14T07:54:20.822Z,6.65
2023-05-14T07:56:47.247Z,5.32
2023-05-14T07:59:13.718Z,6.53
2023-05-14T08:01:40.564Z,5.20
2023-05-14T08:04:07.091Z,5.07
2023-05-14T08:06:34.019Z,6.18
2023-05-14T08:09:00.630Z,5.18
2023-05-14T08:11:27.138Z,5.18
2023-05-14T08:13:53.566Z,5.50
2023-05-14T08:16:20.061Z,4.57
2023-05-14T08:18:46.667Z,4.95
2023-05-14T08:21:13.128Z,4.63
2023-05-14T08:23:39.627Z,5.90
2023-05-14T08:26:06.163Z,4.68
2023-05-14T08:28:32.615Z,4.00
2023-05-14T08:30:59.136Z,4.25
2023-05-14T08:33:25.663Z,4.70
2023-05-14T08:35:53.276Z,3.95
2023-05-14T08:38:19.882Z,4.38
2023-05-14T08:40:56.277Z,4.20
2023-05-14T08:43:26.325Z,4.38
2023-05-14T08:45:58.704Z,4.17
2023-05-14T08:48:29.147Z,4.15
2023-05-14T08:50:56.090Z,4.53
2023-05-14T08:53:22.695Z,4.32
2023-05-14T08:55:51.251Z,4.65
2023-05-14T08:58:17.764Z,4.70
2023-05-14T09:00:44.330Z,3.63
2023-05-14T09:03:11.957Z,4.57
2023-05-14T09:05:39.151Z,4.15
2023-05-14T09:08:05.713Z,4.47
2023-05-14T09:10:32.636Z,3.90
2023-05-14T09:12:59.102Z,4.75
2023-05-14T09:15:29.117Z,3.85
2023-05-14T09:17:56.688Z,4.63
2023-05-14T09:20:24.777Z,5.25
2023-05-14T09:22:54.860Z,3.88
2023-05-14T09:25:27.444Z,3.90
2023-05-14T09:27:56.760Z,3.95
2023-05-14T09:30:26.724Z,3.83
2023-05-14T09:32:54.969Z,3.53
2023-05-14T09:35:23.565Z,3.75
2023-05-14T09:37:54.726Z,3.30
2023-05-14T09:40:24.128Z,4.00
2023-05-14T09:42:51.489Z,3.40
2023-05-14T09:45:18.252Z,3.80
2023-05-14T09:47:45.333Z,3.95
2023-05-14T09:50:12.392Z,3.45
2023-05-14T09:52:39.514Z,3.90
2023-05-14T09:55:06.941Z,4.43
2023-05-14T09:57:34.480Z,3.53
2023-05-14T10:00:01.118Z,7.30
2023-05-14T10:02:36.969Z,4.57
2023-05-14T10:05:06.306Z,4.03
2023-05-14T10:07:41.689Z,3.65
2023-05-14T10:10:13.734Z,3.75
2023-05-14T10:12:40.829Z,4.15
2023-05-14T10:15:17.140Z,4.47
2023-05-14T10:17:49.747Z,11.63
2023-05-14T10:20:17.650Z,3.38
2023-05-14T10:22:44.497Z,5.78
2023-05-14T10:25:11.545Z,3.60
2023-05-14T10:27:38.857Z,3.83
2023-05-14T10:30:14.685Z,42.22
2023-05-14T10:32:42.100Z,5.78
2023-05-14T10:35:22.216Z,3.58
2023-05-14T10:37:51.524Z,2.77
2023-05-14T10:40:19.304Z,2.88
2023-05-14T10:42:47.479Z,5.13
2023-05-14T10:45:15.659Z,3.83
2023-05-14T10:47:43.649Z,3.88
2023-05-14T10:50:15.210Z,10.88
2023-05-14T10:52:43.816Z,4.15
2023-05-14T10:55:14.618Z,6.00
2023-05-14T10:57:43.884Z,14.82
2023-05-14T11:00:12.657Z,4.53
2023-05-14T11:02:41.419Z,5.25
2023-05-14T11:05:11.377Z,4.85
2023-05-14T11:07:40.566Z,3.90
2023-05-14T11:10:13.315Z,14.30
2023-05-14T11:12:45.077Z,4.43
2023-05-14T11:15:14.052Z,3.80
2023-05-14T11:17:42.610Z,11.32
2023-05-14T11:20:10.553Z,4.78
2023-05-14T11:22:38.969Z,3.78
2023-05-14T11:25:06.668Z,3.75
2023-05-14T11:27:38.782Z,3.83
2023-05-14T11:30:06.824Z,3.95
2023-05-14T11:32:33.863Z,3.97
2023-05-14T11:35:00.786Z,3.38
2023-05-14T11:37:27.421Z,3.67
2023-05-14T11:39:56.043Z,3.65
2023-05-14T11:42:23.606Z,4.05
2023-05-14T11:44:52.150Z,3.75
2023-05-14T11:47:21.066Z,3.78
2023-05-14T11:49:48.763Z,3.33
2023-05-14T11:52:19.419Z,3.63
2023-05-14T11:54:46.721Z,4.03
2023-05-14T11:57:16.497Z,3.83
2023-05-14T11:59:43.268Z,3.90
2023-05-14T12:02:14.746Z,4.60
2023-05-14T12:04:42.889Z,4.10
2023-05-14T12:07:12.488Z,3.85
2023-05-14T12:09:44.201Z,3.80
2023-05-14T12:12:12.984Z,4.70
2023-05-14T12:14:42.624Z,3.45
2023-05-14T12:17:15.297Z,4.85
2023-05-14T12:19:43.334Z,3.13
2023-05-14T12:22:15.462Z,3.75
2023-05-14T12:24:43.714Z,4.32
2023-05-14T12:27:10.835Z,4.05
2023-05-14T12:29:41.290Z,6.60
2023-05-14T12:32:10.982Z,8.60
2023-05-14T12:34:38.664Z,3.67
2023-05-14T12:37:06.326Z,4.10
2023-05-14T12:39:34.616Z,23.15
2023-05-14T12:42:01.636Z,4.88
2023-05-14T12:44:28.618Z,4.00
2023-05-14T12:46:55.309Z,3.60
2023-05-14T12:49:21.816Z,3.53
2023-05-14T12:51:48.763Z,8.82
2023-05-14T12:54:16.156Z,4.63
2023-05-14T12:56:42.849Z,4.13
2023-05-14T12:59:09.608Z,3.67
2023-05-14T13:01:37.530Z,4.03
2023-05-14T13:04:05.450Z,3.92
2023-05-14T13:06:32.873Z,4.03
2023-05-14T13:09:01.696Z,3.65
2023-05-14T13:11:30.579Z,3.88
2023-05-14T13:13:57.662Z,3.50
2023-05-14T13:16:25.447Z,4.25
2023-05-14T13:18:52.031Z,3.15
2023-05-14T13:21:18.552Z,5.15
2023-05-14T13:23:45.088Z,29.38
2023-05-14T13:26:11.670Z,5.28
2023-05-14T13:28:38.292Z,3.42
2023-05-14T13:31:10.198Z,3.33
2023-05-14T13:33:38.544Z,3.45
2023-05-14T13:36:05.429Z,3.40
2023-05-14T13:38:32.107Z,10.82
2023-05-14T13:41:02.140Z,4.30
2023-05-14T13:43:33.310Z,3.47
2023-05-14T13:46:01.174Z,16.73
2023-05-14T13:48:28.168Z,5.28
2023-05-14T13:50:54.978Z,10.35
2023-05-14T13:53:23.279Z,4.20
2023-05-14T13:55:50.281Z,3.63
2023-05-14T13:58:16.964Z,4.45
2023-05-14T14:00:43.395Z,3.15
2023-05-14T14:03:09.969Z,4.97
2023-05-14T14:05:36.726Z,2.90
2023-05-14T14:08:13.082Z,3.47
2023-05-14T14:10:50.153Z,3.63
2023-05-14T14:13:17.077Z,3.30
2023-05-14T14:15:43.742Z,3.17
2023-05-14T14:18:10.283Z,3.15
2023-05-14T14:20:36.997Z,4.25
2023-05-14T14:23:03.558Z,3.63
2023-05-14T14:25:30.134Z,3.33
2023-05-14T14:27:57.242Z,4.65
2023-05-14T14:30:23.846Z,5.32
2023-05-14T14:32:50.842Z,7.30
2023-05-14T14:35:19.577Z,3.55
2023-05-14T14:37:49.177Z,3.70
2023-05-14T14:40:16.800Z,3.22
2023-05-14T14:42:43.605Z,13.77
2023-05-14T14:45:10.755Z,3.47
2023-05-14T14:47:37.227Z,3.42
2023-05-14T14:50:04.116Z,3.53
2023-05-14T14:52:30.639Z,3.63
2023-05-14T14:54:57.189Z,3.58
2023-05-14T14:57:23.715Z,4.55
2023-05-14T14:59:50.311Z,4.53
2023-05-14T15:02:16.853Z,6.43
2023-05-14T15:04:43.664Z,7.60
2023-05-14T15:07:10.293Z,5.45
2023-05-14T15:09:36.889Z,4.47
2023-05-14T15:12:03.555Z,3.72
2023-05-14T15:14:30.050Z,8.85
2023-05-14T15:16:56.633Z,6.78
2023-05-14T15:19:23.128Z,4.35
2023-05-14T15:21:49.967Z,3.95
2023-05-14T15:24:16.457Z,4.18
2023-05-14T15:26:43.128Z,3.58
2023-05-14T15:29:09.825Z,4.07
2023-05-14T15:31:36.478Z,4.18
2023-05-14T15:34:03.588Z,4.47
2023-05-14T15:36:30.088Z,3.97
2023-05-14T15:38:56.575Z,3.95
2023-05-14T15:41:23.069Z,4.82
2023-05-14T15:43:49.547Z,3.60
2023-05-14T15:46:16.109Z,3.00
2023-05-14T15:48:42.574Z,3.13
2023-05-14T15:51:09.082Z,2.65
2023-05-14T15:53:35.589Z,3.25
2023-05-14T15:56:02.843Z,3.90
2023-05-14T15:58:29.359Z,2.85
2023-05-14T16:00:55.992Z,2.80
2023-05-14T16:03:22.443Z,3.10
2023-05-14T16:05:49.059Z,2.97
2023-05-14T16:08:15.508Z,3.20
2023-05-14T16:10:42.045Z,4.90
2023-05-14T16:13:08.513Z,3.05
2023-05-14T16:15:35.026Z,3.22
2023-05-14T16:18:01.578Z,2.78
2023-05-14T16:20:28.188Z,3.53
2023-05-14T16:22:54.702Z,3.28
2023-05-14T16:25:21.209Z,2.65
2023-05-14T16:27:47.649Z,3.28
2023-05-14T16:30:14.257Z,3.70
2023-05-14T16:32:42.057Z,3.20
2023-05-14T16:35:09.114Z,3.17
2023-05-14T16:37:35.856Z,2.80
2023-05-14T16:40:02.347Z,3.55
2023-05-14T16:42:28.874Z,2.70
2023-05-14T16:44:55.309Z,2.83
2023-05-14T16:47:21.743Z,2.75
2023-05-14T16:49:48.506Z,2.78
2023-05-14T16:52:15.290Z,2.72
2023-05-14T16:54:41.723Z,2.55
2023-05-14T16:57:08.194Z,2.80
2023-05-14T16:59:34.630Z,2.40
2023-05-14T17:02:01.275Z,3.22
2023-05-14T17:04:27.813Z,2.58
2023-05-14T17:06:55.221Z,3.38
2023-05-14T17:09:21.701Z,2.58
2023-05-14T17:11:48.149Z,3.30
2023-05-14T17:14:14.865Z,3.00
2023-05-14T17:16:42.320Z,3.47
2023-05-14T17:19:08.865Z,3.17
2023-05-14T17:21:35.493Z,3.53
2023-05-14T17:24:01.975Z,3.25
2023-05-14T17:26:28.486Z,3.67
2023-05-14T17:28:54.938Z,3.17
2023-05-14T17:31:22.273Z,2.83
2023-05-14T17:33:49.181Z,3.33
2023-05-14T17:36:15.757Z,3.42
2023-05-14T17:38:42.189Z,3.42
2023-05-14T17:41:09.608Z,3.60
2023-05-14T17:43:36.175Z,3.17
2023-05-14T17:46:03.472Z,3.33
2023-05-14T17:48:29.950Z,3.53
2023-05-14T17:50:56.482Z,3.03
2023-05-14T17:53:23.070Z,3.35
2023-05-14T17:55:50.123Z,3.47
2023-05-14T17:58:16.690Z,3.20
2023-05-14T18:00:44.022Z,3.60
2023-05-14T18:03:10.722Z,3.20
2023-05-14T18:05:37.328Z,3.13
2023-05-14T18:08:03.956Z,4.00
2023-05-14T18:10:30.521Z,3.33
2023-05-14T18:12:57.057Z,3.33
2023-05-14T18:15:25.528Z,3.53
2023-05-14T18:17:52.798Z,3.92
2023-05-14T18:20:19.660Z,3.60
2023-05-14T18:22:46.161Z,3.47
2023-05-14T18:25:13.567Z,3.50
2023-05-14T18:27:44.338Z,3.88
2023-05-14T18:30:13.593Z,3.42
2023-05-14T18:32:41.618Z,3.55
2023-05-14T18:35:08.540Z,4.13
2023-05-14T18:37:35.244Z,4.20
2023-05-14T18:40:04.467Z,3.42
2023-05-14T18:42:30.987Z,4.03
2023-05-14T18:44:57.509Z,4.70
2023-05-14T18:47:24.073Z,3.67
2023-05-14T18:49:54.844Z,3.97
2023-05-14T18:52:24.735Z,3.97
2023-05-14T18:54:51.330Z,3.38
2023-05-14T18:57:17.956Z,3.67
2023-05-14T18:59:44.403Z,3.53
2023-05-14T19:02:10.969Z,4.65
2023-05-14T19:04:50.780Z,4.25
2023-05-14T19:07:18.166Z,4.05
2023-05-14T19:09:44.711Z,3.70
2023-05-14T19:12:11.196Z,3.22
2023-05-14T19:14:37.682Z,3.33
2023-05-14T19:17:04.715Z,5.00
2023-05-14T19:19:31.473Z,3.38
2023-05-14T19:21:58.101Z,3.65
2023-05-14T19:24:24.775Z,3.90
2023-05-14T19:26:51.326Z,4.47
2023-05-14T19:29:17.948Z,3.88
2023-05-14T19:31:45.032Z,4.13
2023-05-14T19:34:11.604Z,4.15
2023-05-14T19:36:38.196Z,3.90
2023-05-14T19:39:04.682Z,5.05
2023-05-14T19:41:31.297Z,4.60
2023-05-14T19:43:58.017Z,4.40
2023-05-14T19:46:24.686Z,4.50
2023-05-14T19:48:51.285Z,4.47
2023-05-14T19:51:18.023Z,4.38
2023-05-14T19:53:45.157Z,3.85
2023-05-14T19:56:11.757Z,4.75
2023-05-14T19:58:38.238Z,5.22
2023-05-14T20:01:05.243Z,4.20
2023-05-14T20:03:32.194Z,4.30
2023-05-14T20:05:59.048Z,5.30
2023-05-14T20:08:25.587Z,4.38
2023-05-14T20:10:52.152Z,4.15
2023-05-14T20:13:18.784Z,4.65
2023-05-14T20:15:45.327Z,5.15
2023-05-14T20:18:11.969Z,5.30
2023-05-14T20:20:39.971Z,5.07
2023-05-14T20:23:06.675Z,4.70
2023-05-14T20:25:33.431Z,4.60
2023-05-14T20:28:03.384Z,4.32
2023-05-14T20:30:30.004Z,4.65
2023-05-14T20:32:56.682Z,5.13
2023-05-14T20:35:23.573Z,5.45
2023-05-14T20:37:50.284Z,5.35
2023-05-14T20:40:17.016Z,5.15
2023-05-14T20:42:43.561Z,4.95
2023-05-14T20:45:10.962Z,4.80
2023-05-14T20:47:37.723Z,4.90
2023-05-14T20:50:04.793Z,5.07
2023-05-14T20:52:31.346Z,6.55
2023-05-14T20:55:00.106Z,6.65
2023-05-14T20:57:28.224Z,6.10
2023-05-14T20:59:54.784Z,6.72
2023-05-14T21:02:21.472Z,6.20
2023-05-14T21:04:48.125Z,6.55
2023-05-14T21:07:14.809Z,5.63
2023-05-14T21:09:41.365Z,5.53
2023-05-14T21:12:08.265Z,6.70
2023-05-14T21:14:34.774Z,5.63
2023-05-14T21:17:01.332Z,6.28
2023-05-14T21:19:27.823Z,5.88
2023-05-14T21:21:54.300Z,10.68
2023-05-14T21:24:20.817Z,6.55
2023-05-14T21:26:47.787Z,6.35
2023-05-14T21:29:14.226Z,6.10
2023-05-14T21:31:40.919Z,5.90
2023-05-14T21:34:07.389Z,6.35
2023-05-14T21:36:33.926Z,5.75
2023-05-14T21:39:00.411Z,6.03
2023-05-14T21:41:26.974Z,6.03
2023-05-14T21:43:53.407Z,6.15
2023-05-14T21:46:19.986Z,6.28
2023-05-14T21:48:46.585Z,6.90
2023-05-14T21:51:13.205Z,5.90
2023-05-14T21:53:39.672Z,5.75
2023-05-14T21:56:07.107Z,6.18
2023-05-14T21:58:33.685Z,6.07
2023-05-14T22:01:00.355Z,5.97
2023-05-14T22:03:26.903Z,5.70
2023-05-14T22:05:53.525Z,6.25
2023-05-14T22:08:20.044Z,5.82
2023-05-14T22:10:47.123Z,6.63
2023-05-14T22:13:13.662Z,6.15
2023-05-14T22:15:40.725Z,6.68
2023-05-14T22:18:07.270Z,6.13
2023-05-14T22:20:33.877Z,6.82
2023-05-14T22:23:00.501Z,6.82
2023-05-14T22:25:27.361Z,6.95
2023-05-14T22:27:54.099Z,6.93
2023-05-14T22:30:21.102Z,7.10
2023-05-14T22:32:47.702Z,7.53
2023-05-14T22:35:14.243Z,7.20
2023-05-14T22:37:40.718Z,7.40
2023-05-14T22:40:07.823Z,7.20
2023-05-14T22:42:34.350Z,7.30
2023-05-14T22:45:00.806Z,7.65
2023-05-14T22:47:27.533Z,7.00
2023-05-14T22:49:53.997Z,6.65
2023-05-14T22:52:20.450Z,7.30
2023-05-14T22:54:49.536Z,6.43
2023-05-14T22:57:16.638Z,9.02
2023-05-14T22:59:43.514Z,7.20
2023-05-14T23:02:10.412Z,7.65
2023-05-14T23:04:36.992Z,7.50
2023-05-14T23:07:03.528Z,9.05
2023-05-14T23:09:29.987Z,7.80
2023-05-14T23:11:56.464Z,6.95
2023-05-14T23:14:22.945Z,7.38
2023-05-14T23:16:49.434Z,6.88
2023-05-14T23:19:16.183Z,6.90
2023-05-14T23:21:42.970Z,7.03
2023-05-14T23:24:09.514Z,7.50
2023-05-14T23:26:35.941Z,6.70
2023-05-14T23:29:02.424Z,8.00
2023-05-14T23:31:28.903Z,7.45
2023-05-14T23:33:56.796Z,8.30
2023-05-14T23:36:23.624Z,7.70
2023-05-14T23:38:50.381Z,8.05
2023-05-14T23:41:16.800Z,8.52
2023-05-14T23:43:43.616Z,8.13
2023-05-14T23:46:10.574Z,7.30
2023-05-14T23:48:37.422Z,7.55
2023-05-14T23:51:03.926Z,8.82
2023-05-14T23:53:30.371Z,8.68
2023-05-14T23:55:56.970Z,7.47
2023-05-14T23:58:23.826Z,7.97
